sensor_id;sensor_type;location;lat;lon;timestamp;temperature;humidity
13426;DHT22;6785;57.918;12.530;2023-05-02T00:01:12;4.50;99.90
13426;DHT22;6785;57.918;12.530;2023-05-02T00:03:40;4.40;99.90
13426;DHT22;6785;57.918;12.530;2023-05-02T00:06:08;4.40;99.90
13426;DHT22;6785;57.918;12.530;2023-05-02T00:08:35;4.30;99.90
13426;DHT22;6785;57.918;12.530;2023-05-02T00:11:02;4.10;99.90
13426;DHT22;6785;57.918;12.530;2023-05-02T00:13:29;4.10;99.90
13426;DHT22;6785;57.918;12.530;2023-05-02T00:15:56;4.10;99.90
13426;DHT22;6785;57.918;12.530;2023-05-02T00:18:23;4.00;99.90
13426;DHT22;6785;57.918;12.530;2023-05-02T00:20:51;4.10;99.90
13426;DHT22;6785;57.918;12.530;2023-05-02T00:23:18;4.10;99.90
13426;DHT22;6785;57.918;12.530;2023-05-02T00:25:45;4.10;99.90
13426;DHT22;6785;57.918;12.530;2023-05-02T00:28:11;4.10;99.90
13426;DHT22;6785;57.918;12.530;2023-05-02T00:30:42;4.10;99.90
13426;DHT22;6785;57.918;12.530;2023-05-02T00:33:09;4.00;99.90
13426;DHT22;6785;57.918;12.530;2023-05-02T00:35:36;3.90;99.90
13426;DHT22;6785;57.918;12.530;2023-05-02T00:38:04;4.00;99.90
13426;DHT22;6785;57.918;12.530;2023-05-02T00:40:41;3.90;99.90
13426;DHT22;6785;57.918;12.530;2023-05-02T00:43:08;3.80;99.90
13426;DHT22;6785;57.918;12.530;2023-05-02T00:45:35;3.80;99.90
13426;DHT22;6785;57.918;12.530;2023-05-02T00:48:02;3.80;99.90
13426;DHT22;6785;57.918;12.530;2023-05-02T00:50:30;3.70;99.90
13426;DHT22;6785;57.918;12.530;2023-05-02T00:52:59;3.60;99.90
13426;DHT22;6785;57.918;12.530;2023-05-02T00:55:27;3.60;99.90
13426;DHT22;6785;57.918;12.530;2023-05-02T00:57:54;3.50;99.90
13426;DHT22;6785;57.918;12.530;2023-05-02T01:00:22;3.50;99.90
13426;DHT22;6785;57.918;12.530;2023-05-02T01:03:01;3.50;99.90
13426;DHT22;6785;57.918;12.530;2023-05-02T01:05:37;3.40;99.90
13426;DHT22;6785;57.918;12.530;2023-05-02T01:08:11;3.30;99.90
13426;DHT22;6785;57.918;12.530;2023-05-02T01:10:47;3.30;99.90
13426;DHT22;6785;57.918;12.530;2023-05-02T01:13:19;3.20;99.90
13426;DHT22;6785;57.918;12.530;2023-05-02T01:15:47;3.20;99.90
13426;DHT22;6785;57.918;12.530;2023-05-02T01:18:17;3.20;99.90
13426;DHT22;6785;57.918;12.530;2023-05-02T01:20:47;3.10;99.90
13426;DHT22;6785;57.918;12.530;2023-05-02T01:23:22;3.10;99.90
13426;DHT22;6785;57.918;12.530;2023-05-02T01:26:02;3.10;99.90
13426;DHT22;6785;57.918;12.530;2023-05-02T01:28:43;3.10;99.90
13426;DHT22;6785;57.918;12.530;2023-05-02T01:31:11;3.00;99.90
13426;DHT22;6785;57.918;12.530;2023-05-02T01:33:39;3.10;99.90
13426;DHT22;6785;57.918;12.530;2023-05-02T01:36:08;3.00;99.90
13426;DHT22;6785;57.918;12.530;2023-05-02T01:38:36;3.00;99.90
13426;DHT22;6785;57.918;12.530;2023-05-02T01:41:06;3.00;99.90
13426;DHT22;6785;57.918;12.530;2023-05-02T01:43:34;3.00;99.90
13426;DHT22;6785;57.918;12.530;2023-05-02T01:46:06;2.90;99.90
13426;DHT22;6785;57.918;12.530;2023-05-02T01:48:34;2.90;99.90
13426;DHT22;6785;57.918;12.530;2023-05-02T01:51:02;2.90;99.90
13426;DHT22;6785;57.918;12.530;2023-05-02T01:53:32;2.80;99.90
13426;DHT22;6785;57.918;12.530;2023-05-02T01:56:00;2.80;99.90
13426;DHT22;6785;57.918;12.530;2023-05-02T01:58:29;2.80;99.90
13426;DHT22;6785;57.918;12.530;2023-05-02T02:00:59;2.70;99.90
13426;DHT22;6785;57.918;12.530;2023-05-02T02:03:29;2.70;99.90
13426;DHT22;6785;57.918;12.530;2023-05-02T02:05:57;2.70;99.90
13426;DHT22;6785;57.918;12.530;2023-05-02T02:08:24;2.60;99.90
13426;DHT22;6785;57.918;12.530;2023-05-02T02:10:56;2.60;99.90
13426;DHT22;6785;57.918;12.530;2023-05-02T02:13:27;2.50;99.90
13426;DHT22;6785;57.918;12.530;2023-05-02T02:15:58;2.50;99.90
13426;DHT22;6785;57.918;12.530;2023-05-02T02:18:28;2.40;99.90
13426;DHT22;6785;57.918;12.530;2023-05-02T02:20:58;2.50;99.90
13426;DHT22;6785;57.918;12.530;2023-05-02T02:23:26;2.40;99.90
13426;DHT22;6785;57.918;12.530;2023-05-02T02:25:54;2.40;99.90
13426;DHT22;6785;57.918;12.530;2023-05-02T02:28:22;2.40;99.90
13426;DHT22;6785;57.918;12.530;2023-05-02T02:30:49;2.40;99.90
13426;DHT22;6785;57.918;12.530;2023-05-02T02:33:16;2.30;99.90
13426;DHT22;6785;57.918;12.530;2023-05-02T02:35:49;2.40;99.90
13426;DHT22;6785;57.918;12.530;2023-05-02T02:38:26;2.50;99.90
13426;DHT22;6785;57.918;12.530;2023-05-02T02:40:59;2.50;99.90
13426;DHT22;6785;57.918;12.530;2023-05-02T02:43:32;2.50;99.90
13426;DHT22;6785;57.918;12.530;2023-05-02T02:46:07;2.40;99.90
13426;DHT22;6785;57.918;12.530;2023-05-02T02:48:42;2.40;99.90
13426;DHT22;6785;57.918;12.530;2023-05-02T02:51:13;2.40;99.90
13426;DHT22;6785;57.918;12.530;2023-05-02T02:53:56;2.50;99.90
13426;DHT22;6785;57.918;12.530;2023-05-02T02:56:27;2.40;99.90
13426;DHT22;6785;57.918;12.530;2023-05-02T02:58:57;2.30;99.90
13426;DHT22;6785;57.918;12.530;2023-05-02T03:01:27;2.40;99.90
13426;DHT22;6785;57.918;12.530;2023-05-02T03:03:57;2.40;99.90
13426;DHT22;6785;57.918;12.530;2023-05-02T03:06:26;2.40;99.90
13426;DHT22;6785;57.918;12.530;2023-05-02T03:08:52;2.50;99.90
13426;DHT22;6785;57.918;12.530;2023-05-02T03:11:19;2.40;99.90
13426;DHT22;6785;57.918;12.530;2023-05-02T03:13:46;2.40;99.90
13426;DHT22;6785;57.918;12.530;2023-05-02T03:16:37;2.40;99.90
13426;DHT22;6785;57.918;12.530;2023-05-02T03:19:05;2.40;99.90
13426;DHT22;6785;57.918;12.530;2023-05-02T03:21:34;2.30;99.90
13426;DHT22;6785;57.918;12.530;2023-05-02T03:24:02;2.40;99.90
13426;DHT22;6785;57.918;12.530;2023-05-02T03:26:29;2.40;99.90
13426;DHT22;6785;57.918;12.530;2023-05-02T03:28:56;2.30;99.90
13426;DHT22;6785;57.918;12.530;2023-05-02T03:31:23;2.40;99.90
13426;DHT22;6785;57.918;12.530;2023-05-02T03:33:50;2.40;99.90
13426;DHT22;6785;57.918;12.530;2023-05-02T03:36:17;2.30;99.90
13426;DHT22;6785;57.918;12.530;2023-05-02T03:38:45;2.30;99.90
13426;DHT22;6785;57.918;12.530;2023-05-02T03:41:12;2.40;99.90
13426;DHT22;6785;57.918;12.530;2023-05-02T03:43:39;2.30;99.90
13426;DHT22;6785;57.918;12.530;2023-05-02T03:46:07;2.40;99.90
13426;DHT22;6785;57.918;12.530;2023-05-02T03:48:35;2.40;99.90
13426;DHT22;6785;57.918;12.530;2023-05-02T03:51:04;2.40;99.90
13426;DHT22;6785;57.918;12.530;2023-05-02T03:53:32;2.40;99.90
13426;DHT22;6785;57.918;12.530;2023-05-02T03:56:00;2.40;99.90
13426;DHT22;6785;57.918;12.530;2023-05-02T03:58:27;2.40;99.90
13426;DHT22;6785;57.918;12.530;2023-05-02T04:00:54;2.30;99.90
13426;DHT22;6785;57.918;12.530;2023-05-02T04:03:21;2.50;99.90
13426;DHT22;6785;57.918;12.530;2023-05-02T04:05:48;2.50;99.90
13426;DHT22;6785;57.918;12.530;2023-05-02T04:08:16;2.40;99.90
13426;DHT22;6785;57.918;12.530;2023-05-02T04:10:42;2.50;99.90
13426;DHT22;6785;57.918;12.530;2023-05-02T04:13:10;2.50;99.90
13426;DHT22;6785;57.918;12.530;2023-05-02T04:15:37;2.50;99.90
13426;DHT22;6785;57.918;12.530;2023-05-02T04:18:04;2.50;99.90
13426;DHT22;6785;57.918;12.530;2023-05-02T04:20:31;2.60;99.90
13426;DHT22;6785;57.918;12.530;2023-05-02T04:22:58;2.60;99.90
13426;DHT22;6785;57.918;12.530;2023-05-02T04:25:26;2.60;99.90
13426;DHT22;6785;57.918;12.530;2023-05-02T04:27:52;2.70;99.90
13426;DHT22;6785;57.918;12.530;2023-05-02T04:30:20;2.70;99.90
13426;DHT22;6785;57.918;12.530;2023-05-02T04:32:47;2.70;99.90
13426;DHT22;6785;57.918;12.530;2023-05-02T04:35:14;2.80;99.90
13426;DHT22;6785;57.918;12.530;2023-05-02T04:37:41;2.80;99.90
13426;DHT22;6785;57.918;12.530;2023-05-02T04:40:09;2.90;99.90
13426;DHT22;6785;57.918;12.530;2023-05-02T04:42:36;2.90;99.90
13426;DHT22;6785;57.918;12.530;2023-05-02T04:45:03;3.00;99.90
13426;DHT22;6785;57.918;12.530;2023-05-02T04:47:31;2.90;99.90
13426;DHT22;6785;57.918;12.530;2023-05-02T04:49:58;2.90;99.90
13426;DHT22;6785;57.918;12.530;2023-05-02T04:52:25;3.00;99.90
13426;DHT22;6785;57.918;12.530;2023-05-02T04:54:51;3.00;99.90
13426;DHT22;6785;57.918;12.530;2023-05-02T04:57:18;3.00;99.90
13426;DHT22;6785;57.918;12.530;2023-05-02T04:59:45;3.20;99.90
13426;DHT22;6785;57.918;12.530;2023-05-02T05:02:12;3.20;99.90
13426;DHT22;6785;57.918;12.530;2023-05-02T05:04:40;3.20;99.90
13426;DHT22;6785;57.918;12.530;2023-05-02T05:07:06;3.30;99.90
13426;DHT22;6785;57.918;12.530;2023-05-02T05:09:33;3.30;99.90
13426;DHT22;6785;57.918;12.530;2023-05-02T05:12:00;3.40;99.90
13426;DHT22;6785;57.918;12.530;2023-05-02T05:14:27;3.40;99.90
13426;DHT22;6785;57.918;12.530;2023-05-02T05:16:55;3.50;99.90
13426;DHT22;6785;57.918;12.530;2023-05-02T05:19:22;3.50;99.90
13426;DHT22;6785;57.918;12.530;2023-05-02T05:21:50;3.60;99.90
13426;DHT22;6785;57.918;12.530;2023-05-02T05:24:17;3.70;99.90
13426;DHT22;6785;57.918;12.530;2023-05-02T05:26:44;3.70;99.90
13426;DHT22;6785;57.918;12.530;2023-05-02T05:29:11;3.70;99.90
13426;DHT22;6785;57.918;12.530;2023-05-02T05:31:37;3.80;99.90
13426;DHT22;6785;57.918;12.530;2023-05-02T05:34:04;3.80;99.90
13426;DHT22;6785;57.918;12.530;2023-05-02T05:36:31;3.80;99.90
13426;DHT22;6785;57.918;12.530;2023-05-02T05:38:59;3.90;99.90
13426;DHT22;6785;57.918;12.530;2023-05-02T05:41:26;3.90;99.90
13426;DHT22;6785;57.918;12.530;2023-05-02T05:43:53;4.00;99.90
13426;DHT22;6785;57.918;12.530;2023-05-02T05:46:20;4.00;99.90
13426;DHT22;6785;57.918;12.530;2023-05-02T05:48:47;4.10;99.90
13426;DHT22;6785;57.918;12.530;2023-05-02T05:51:14;4.10;99.90
13426;DHT22;6785;57.918;12.530;2023-05-02T05:53:41;4.10;99.90
13426;DHT22;6785;57.918;12.530;2023-05-02T05:56:09;4.20;99.90
13426;DHT22;6785;57.918;12.530;2023-05-02T05:58:36;4.30;99.90
13426;DHT22;6785;57.918;12.530;2023-05-02T06:01:03;4.30;99.90
13426;DHT22;6785;57.918;12.530;2023-05-02T06:03:30;4.40;99.90
13426;DHT22;6785;57.918;12.530;2023-05-02T06:05:57;4.50;99.90
13426;DHT22;6785;57.918;12.530;2023-05-02T06:08:24;4.60;99.90
13426;DHT22;6785;57.918;12.530;2023-05-02T06:10:51;4.70;99.90
13426;DHT22;6785;57.918;12.530;2023-05-02T06:13:19;4.80;99.90
13426;DHT22;6785;57.918;12.530;2023-05-02T06:15:46;4.90;99.90
13426;DHT22;6785;57.918;12.530;2023-05-02T06:18:13;4.90;99.90
13426;DHT22;6785;57.918;12.530;2023-05-02T06:20:40;5.10;99.90
13426;DHT22;6785;57.918;12.530;2023-05-02T06:23:06;5.10;99.90
13426;DHT22;6785;57.918;12.530;2023-05-02T06:25:36;5.20;99.90
13426;DHT22;6785;57.918;12.530;2023-05-02T06:28:03;5.20;99.90
13426;DHT22;6785;57.918;12.530;2023-05-02T06:30:31;5.30;99.90
13426;DHT22;6785;57.918;12.530;2023-05-02T06:32:58;5.40;99.90
13426;DHT22;6785;57.918;12.530;2023-05-02T06:35:25;5.50;99.90
13426;DHT22;6785;57.918;12.530;2023-05-02T06:37:51;5.60;99.90
13426;DHT22;6785;57.918;12.530;2023-05-02T06:40:18;5.60;99.90
13426;DHT22;6785;57.918;12.530;2023-05-02T06:42:45;5.60;99.90
13426;DHT22;6785;57.918;12.530;2023-05-02T06:45:12;5.80;99.90
13426;DHT22;6785;57.918;12.530;2023-05-02T06:47:40;6.00;99.90
13426;DHT22;6785;57.918;12.530;2023-05-02T06:50:08;6.00;99.90
13426;DHT22;6785;57.918;12.530;2023-05-02T06:52:35;5.80;99.90
13426;DHT22;6785;57.918;12.530;2023-05-02T06:55:03;5.70;99.90
13426;DHT22;6785;57.918;12.530;2023-05-02T06:57:29;5.90;99.90
13426;DHT22;6785;57.918;12.530;2023-05-02T06:59:56;6.20;99.90
13426;DHT22;6785;57.918;12.530;2023-05-02T07:02:23;6.30;99.90
13426;DHT22;6785;57.918;12.530;2023-05-02T07:04:51;6.30;99.90
13426;DHT22;6785;57.918;12.530;2023-05-02T07:07:18;6.50;99.90
13426;DHT22;6785;57.918;12.530;2023-05-02T07:09:46;6.60;99.90
13426;DHT22;6785;57.918;12.530;2023-05-02T07:12:13;6.60;99.90
13426;DHT22;6785;57.918;12.530;2023-05-02T07:14:40;6.60;99.90
13426;DHT22;6785;57.918;12.530;2023-05-02T07:17:07;6.70;99.90
13426;DHT22;6785;57.918;12.530;2023-05-02T07:19:34;6.80;99.90
13426;DHT22;6785;57.918;12.530;2023-05-02T07:22:02;6.90;99.90
13426;DHT22;6785;57.918;12.530;2023-05-02T07:24:29;7.20;99.90
13426;DHT22;6785;57.918;12.530;2023-05-02T07:26:55;7.20;99.90
13426;DHT22;6785;57.918;12.530;2023-05-02T07:29:22;7.20;99.90
13426;DHT22;6785;57.918;12.530;2023-05-02T07:31:49;7.40;99.90
13426;DHT22;6785;57.918;12.530;2023-05-02T07:34:16;7.70;99.90
13426;DHT22;6785;57.918;12.530;2023-05-02T07:36:43;7.70;99.90
13426;DHT22;6785;57.918;12.530;2023-05-02T07:39:11;7.70;99.90
13426;DHT22;6785;57.918;12.530;2023-05-02T07:41:37;7.60;99.90
13426;DHT22;6785;57.918;12.530;2023-05-02T07:44:04;7.60;99.90
13426;DHT22;6785;57.918;12.530;2023-05-02T07:46:31;7.70;99.90
13426;DHT22;6785;57.918;12.530;2023-05-02T07:48:57;7.60;99.90
13426;DHT22;6785;57.918;12.530;2023-05-02T07:51:24;7.80;99.90
13426;DHT22;6785;57.918;12.530;2023-05-02T07:53:51;8.00;99.90
13426;DHT22;6785;57.918;12.530;2023-05-02T07:56:21;8.20;99.90
13426;DHT22;6785;57.918;12.530;2023-05-02T07:58:48;8.20;99.90
13426;DHT22;6785;57.918;12.530;2023-05-02T08:01:16;8.20;99.90
13426;DHT22;6785;57.918;12.530;2023-05-02T08:03:42;8.40;99.90
13426;DHT22;6785;57.918;12.530;2023-05-02T08:06:09;8.50;99.90
13426;DHT22;6785;57.918;12.530;2023-05-02T08:08:36;8.50;99.90
13426;DHT22;6785;57.918;12.530;2023-05-02T08:11:02;8.70;99.90
13426;DHT22;6785;57.918;12.530;2023-05-02T08:13:31;8.90;99.90
13426;DHT22;6785;57.918;12.530;2023-05-02T08:15:58;8.80;99.90
13426;DHT22;6785;57.918;12.530;2023-05-02T08:18:24;8.70;99.90
13426;DHT22;6785;57.918;12.530;2023-05-02T08:20:51;8.40;99.90
13426;DHT22;6785;57.918;12.530;2023-05-02T08:23:18;8.60;99.90
13426;DHT22;6785;57.918;12.530;2023-05-02T08:25:45;8.50;99.90
13426;DHT22;6785;57.918;12.530;2023-05-02T08:28:11;8.60;99.90
13426;DHT22;6785;57.918;12.530;2023-05-02T08:30:39;8.70;99.90
13426;DHT22;6785;57.918;12.530;2023-05-02T08:33:06;8.80;99.90
13426;DHT22;6785;57.918;12.530;2023-05-02T08:35:33;9.20;99.90
13426;DHT22;6785;57.918;12.530;2023-05-02T08:37:59;9.40;99.90
13426;DHT22;6785;57.918;12.530;2023-05-02T08:40:26;9.30;99.90
13426;DHT22;6785;57.918;12.530;2023-05-02T08:42:53;8.90;99.90
13426;DHT22;6785;57.918;12.530;2023-05-02T08:45:21;8.40;99.90
13426;DHT22;6785;57.918;12.530;2023-05-02T08:47:50;8.30;99.90
13426;DHT22;6785;57.918;12.530;2023-05-02T08:50:18;8.40;99.90
13426;DHT22;6785;57.918;12.530;2023-05-02T08:52:48;8.70;99.90
13426;DHT22;6785;57.918;12.530;2023-05-02T08:55:16;8.50;99.90
13426;DHT22;6785;57.918;12.530;2023-05-02T08:57:43;8.50;99.90
13426;DHT22;6785;57.918;12.530;2023-05-02T09:00:11;8.70;99.90
13426;DHT22;6785;57.918;12.530;2023-05-02T09:02:48;8.60;99.90
13426;DHT22;6785;57.918;12.530;2023-05-02T09:05:19;8.60;99.90
13426;DHT22;6785;57.918;12.530;2023-05-02T09:07:50;8.40;99.90
13426;DHT22;6785;57.918;12.530;2023-05-02T09:10:17;8.60;99.90
13426;DHT22;6785;57.918;12.530;2023-05-02T09:12:44;8.80;99.90
13426;DHT22;6785;57.918;12.530;2023-05-02T09:15:13;9.00;99.90
13426;DHT22;6785;57.918;12.530;2023-05-02T09:17:41;8.80;99.90
13426;DHT22;6785;57.918;12.530;2023-05-02T09:20:09;8.80;99.90
13426;DHT22;6785;57.918;12.530;2023-05-02T09:22:38;8.80;99.90
13426;DHT22;6785;57.918;12.530;2023-05-02T09:25:06;8.90;99.90
13426;DHT22;6785;57.918;12.530;2023-05-02T09:27:48;8.90;99.90
13426;DHT22;6785;57.918;12.530;2023-05-02T09:30:20;9.10;99.90
13426;DHT22;6785;57.918;12.530;2023-05-02T09:32:48;9.30;99.90
13426;DHT22;6785;57.918;12.530;2023-05-02T09:35:17;9.10;99.90
13426;DHT22;6785;57.918;12.530;2023-05-02T09:37:51;8.90;99.90
13426;DHT22;6785;57.918;12.530;2023-05-02T09:40:18;8.70;99.90
13426;DHT22;6785;57.918;12.530;2023-05-02T09:42:45;9.00;99.90
13426;DHT22;6785;57.918;12.530;2023-05-02T09:45:21;9.00;99.90
13426;DHT22;6785;57.918;12.530;2023-05-02T09:47:48;9.10;99.90
13426;DHT22;6785;57.918;12.530;2023-05-02T09:50:32;9.10;99.90
13426;DHT22;6785;57.918;12.530;2023-05-02T09:53:05;9.10;99.90
13426;DHT22;6785;57.918;12.530;2023-05-02T09:55:32;9.30;99.90
13426;DHT22;6785;57.918;12.530;2023-05-02T09:57:59;9.50;99.90
13426;DHT22;6785;57.918;12.530;2023-05-02T10:00:40;9.30;99.90
13426;DHT22;6785;57.918;12.530;2023-05-02T10:03:07;9.30;99.90
13426;DHT22;6785;57.918;12.530;2023-05-02T10:05:36;9.60;99.90
13426;DHT22;6785;57.918;12.530;2023-05-02T10:08:06;9.70;99.90
13426;DHT22;6785;57.918;12.530;2023-05-02T10:10:36;9.80;99.90
13426;DHT22;6785;57.918;12.530;2023-05-02T10:13:04;9.70;99.90
13426;DHT22;6785;57.918;12.530;2023-05-02T10:15:32;9.70;99.90
13426;DHT22;6785;57.918;12.530;2023-05-02T10:18:00;9.80;99.90
13426;DHT22;6785;57.918;12.530;2023-05-02T10:20:33;9.80;99.90
13426;DHT22;6785;57.918;12.530;2023-05-02T10:23:01;9.70;99.90
13426;DHT22;6785;57.918;12.530;2023-05-02T10:25:31;10.00;99.90
13426;DHT22;6785;57.918;12.530;2023-05-02T10:27:58;10.30;99.90
13426;DHT22;6785;57.918;12.530;2023-05-02T10:30:25;10.20;99.90
13426;DHT22;6785;57.918;12.530;2023-05-02T10:32:52;10.20;99.90
13426;DHT22;6785;57.918;12.530;2023-05-02T10:35:20;10.20;99.90
13426;DHT22;6785;57.918;12.530;2023-05-02T10:37:49;10.20;99.90
13426;DHT22;6785;57.918;12.530;2023-05-02T10:40:17;10.30;99.90
13426;DHT22;6785;57.918;12.530;2023-05-02T10:42:47;10.30;99.90
13426;DHT22;6785;57.918;12.530;2023-05-02T10:45:30;10.10;99.90
13426;DHT22;6785;57.918;12.530;2023-05-02T10:48:12;10.00;99.90
13426;DHT22;6785;57.918;12.530;2023-05-02T10:50:47;10.10;99.90
13426;DHT22;6785;57.918;12.530;2023-05-02T10:53:22;10.10;99.90
13426;DHT22;6785;57.918;12.530;2023-05-02T10:56:07;10.10;99.90
13426;DHT22;6785;57.918;12.530;2023-05-02T10:58:36;10.00;99.90
13426;DHT22;6785;57.918;12.530;2023-05-02T11:01:34;10.20;99.90
13426;DHT22;6785;57.918;12.530;2023-05-02T11:04:03;10.40;99.90
13426;DHT22;6785;57.918;12.530;2023-05-02T11:06:32;10.60;99.90
13426;DHT22;6785;57.918;12.530;2023-05-02T11:09:31;10.60;99.90
13426;DHT22;6785;57.918;12.530;2023-05-02T11:11:59;10.90;99.90
13426;DHT22;6785;57.918;12.530;2023-05-02T11:14:48;10.90;99.90
13426;DHT22;6785;57.918;12.530;2023-05-02T11:17:16;10.60;99.90
13426;DHT22;6785;57.918;12.530;2023-05-02T11:22:54;10.50;99.90
13426;DHT22;6785;57.918;12.530;2023-05-02T11:25:32;10.60;99.90
13426;DHT22;6785;57.918;12.530;2023-05-02T11:27:59;10.70;99.90
13426;DHT22;6785;57.918;12.530;2023-05-02T11:30:43;11.00;99.90
13426;DHT22;6785;57.918;12.530;2023-05-02T11:33:16;11.10;99.90
13426;DHT22;6785;57.918;12.530;2023-05-02T11:35:45;11.20;99.90
13426;DHT22;6785;57.918;12.530;2023-05-02T11:38:14;11.20;99.90
13426;DHT22;6785;57.918;12.530;2023-05-02T11:40:50;11.40;99.90
13426;DHT22;6785;57.918;12.530;2023-05-02T11:43:18;11.40;99.90
13426;DHT22;6785;57.918;12.530;2023-05-02T11:45:47;11.00;99.90
13426;DHT22;6785;57.918;12.530;2023-05-02T11:48:16;11.00;99.90
13426;DHT22;6785;57.918;12.530;2023-05-02T11:50:45;10.90;99.90
13426;DHT22;6785;57.918;12.530;2023-05-02T11:53:13;10.90;99.90
13426;DHT22;6785;57.918;12.530;2023-05-02T11:55:45;11.20;99.90
13426;DHT22;6785;57.918;12.530;2023-05-02T11:58:13;11.40;99.90
13426;DHT22;6785;57.918;12.530;2023-05-02T12:00:41;11.40;99.90
13426;DHT22;6785;57.918;12.530;2023-05-02T12:03:23;11.50;99.90
13426;DHT22;6785;57.918;12.530;2023-05-02T12:05:50;11.70;99.90
13426;DHT22;6785;57.918;12.530;2023-05-02T12:08:18;12.00;99.90
13426;DHT22;6785;57.918;12.530;2023-05-02T12:10:46;12.00;99.90
13426;DHT22;6785;57.918;12.530;2023-05-02T12:13:14;11.80;99.90
13426;DHT22;6785;57.918;12.530;2023-05-02T12:15:41;11.70;99.90
13426;DHT22;6785;57.918;12.530;2023-05-02T12:18:08;11.90;99.90
13426;DHT22;6785;57.918;12.530;2023-05-02T12:20:36;12.00;99.90
13426;DHT22;6785;57.918;12.530;2023-05-02T12:23:04;12.30;99.90
13426;DHT22;6785;57.918;12.530;2023-05-02T12:25:36;12.40;99.90
13426;DHT22;6785;57.918;12.530;2023-05-02T12:28:04;12.10;99.90
13426;DHT22;6785;57.918;12.530;2023-05-02T12:30:31;12.10;99.90
13426;DHT22;6785;57.918;12.530;2023-05-02T12:32:59;12.10;99.90
13426;DHT22;6785;57.918;12.530;2023-05-02T12:35:27;12.30;99.90
13426;DHT22;6785;57.918;12.530;2023-05-02T12:38:07;12.10;99.90
13426;DHT22;6785;57.918;12.530;2023-05-02T12:40:34;12.10;99.90
13426;DHT22;6785;57.918;12.530;2023-05-02T12:43:03;12.30;99.90
13426;DHT22;6785;57.918;12.530;2023-05-02T12:45:32;12.40;99.90
13426;DHT22;6785;57.918;12.530;2023-05-02T12:47:59;12.20;99.90
13426;DHT22;6785;57.918;12.530;2023-05-02T12:50:36;12.20;99.90
13426;DHT22;6785;57.918;12.530;2023-05-02T12:53:04;12.20;99.90
13426;DHT22;6785;57.918;12.530;2023-05-02T12:55:32;11.90;99.90
13426;DHT22;6785;57.918;12.530;2023-05-02T12:57:59;11.50;99.90
13426;DHT22;6785;57.918;12.530;2023-05-02T13:00:26;11.50;99.90
13426;DHT22;6785;57.918;12.530;2023-05-02T13:02:53;11.70;99.90
13426;DHT22;6785;57.918;12.530;2023-05-02T13:05:20;11.80;99.90
13426;DHT22;6785;57.918;12.530;2023-05-02T13:07:47;11.80;99.90
13426;DHT22;6785;57.918;12.530;2023-05-02T13:10:15;11.90;99.90
13426;DHT22;6785;57.918;12.530;2023-05-02T13:12:43;12.10;99.90
13426;DHT22;6785;57.918;12.530;2023-05-02T13:15:11;12.00;99.90
13426;DHT22;6785;57.918;12.530;2023-05-02T13:17:38;11.80;99.90
13426;DHT22;6785;57.918;12.530;2023-05-02T13:20:06;12.00;99.90
13426;DHT22;6785;57.918;12.530;2023-05-02T13:22:34;11.90;99.90
13426;DHT22;6785;57.918;12.530;2023-05-02T13:25:00;11.90;99.90
13426;DHT22;6785;57.918;12.530;2023-05-02T13:27:29;11.70;99.90
13426;DHT22;6785;57.918;12.530;2023-05-02T13:29:56;11.70;99.90
13426;DHT22;6785;57.918;12.530;2023-05-02T13:32:22;11.90;99.90
13426;DHT22;6785;57.918;12.530;2023-05-02T13:34:49;12.00;99.90
13426;DHT22;6785;57.918;12.530;2023-05-02T13:37:17;12.00;99.90
13426;DHT22;6785;57.918;12.530;2023-05-02T13:39:43;12.10;99.90
13426;DHT22;6785;57.918;12.530;2023-05-02T13:42:10;12.10;99.80
13426;DHT22;6785;57.918;12.530;2023-05-02T13:44:38;12.00;99.90
13426;DHT22;6785;57.918;12.530;2023-05-02T13:47:05;12.00;99.90
13426;DHT22;6785;57.918;12.530;2023-05-02T13:49:32;12.10;99.90
13426;DHT22;6785;57.918;12.530;2023-05-02T13:51:59;12.00;99.90
13426;DHT22;6785;57.918;12.530;2023-05-02T13:54:26;12.00;99.90
13426;DHT22;6785;57.918;12.530;2023-05-02T13:56:52;12.00;99.90
13426;DHT22;6785;57.918;12.530;2023-05-02T13:59:20;11.90;99.90
13426;DHT22;6785;57.918;12.530;2023-05-02T14:01:48;11.70;99.90
13426;DHT22;6785;57.918;12.530;2023-05-02T14:04:15;11.70;99.90
13426;DHT22;6785;57.918;12.530;2023-05-02T14:06:42;11.60;99.90
13426;DHT22;6785;57.918;12.530;2023-05-02T14:09:09;11.60;99.90
13426;DHT22;6785;57.918;12.530;2023-05-02T14:11:36;11.50;99.90
13426;DHT22;6785;57.918;12.530;2023-05-02T14:14:02;11.60;99.90
13426;DHT22;6785;57.918;12.530;2023-05-02T14:16:29;11.80;99.90
13426;DHT22;6785;57.918;12.530;2023-05-02T14:18:57;11.80;99.90
13426;DHT22;6785;57.918;12.530;2023-05-02T14:21:24;11.90;99.90
13426;DHT22;6785;57.918;12.530;2023-05-02T14:23:51;11.90;99.90
13426;DHT22;6785;57.918;12.530;2023-05-02T14:26:18;11.70;99.90
13426;DHT22;6785;57.918;12.530;2023-05-02T14:28:45;11.40;99.90
13426;DHT22;6785;57.918;12.530;2023-05-02T14:31:12;11.50;99.90
13426;DHT22;6785;57.918;12.530;2023-05-02T14:33:39;11.60;99.90
13426;DHT22;6785;57.918;12.530;2023-05-02T14:36:07;11.40;99.90
13426;DHT22;6785;57.918;12.530;2023-05-02T14:38:34;11.30;99.90
13426;DHT22;6785;57.918;12.530;2023-05-02T14:41:00;11.30;99.90
13426;DHT22;6785;57.918;12.530;2023-05-02T14:43:28;11.30;99.90
13426;DHT22;6785;57.918;12.530;2023-05-02T14:45:55;11.40;99.90
13426;DHT22;6785;57.918;12.530;2023-05-02T14:48:22;11.20;99.90
13426;DHT22;6785;57.918;12.530;2023-05-02T14:50:48;10.80;99.90
13426;DHT22;6785;57.918;12.530;2023-05-02T14:53:17;11.00;99.90
13426;DHT22;6785;57.918;12.530;2023-05-02T14:55:43;11.00;99.90
13426;DHT22;6785;57.918;12.530;2023-05-02T14:58:10;10.90;99.90
13426;DHT22;6785;57.918;12.530;2023-05-02T15:00:37;11.00;99.90
13426;DHT22;6785;57.918;12.530;2023-05-02T15:03:04;10.90;99.90
13426;DHT22;6785;57.918;12.530;2023-05-02T15:05:31;10.70;99.90
13426;DHT22;6785;57.918;12.530;2023-05-02T15:07:58;10.50;99.90
13426;DHT22;6785;57.918;12.530;2023-05-02T15:10:27;10.30;99.90
13426;DHT22;6785;57.918;12.530;2023-05-02T15:12:53;10.30;99.90
13426;DHT22;6785;57.918;12.530;2023-05-02T15:15:20;10.10;99.90
13426;DHT22;6785;57.918;12.530;2023-05-02T15:17:49;10.20;99.90
13426;DHT22;6785;57.918;12.530;2023-05-02T15:20:16;10.10;99.90
13426;DHT22;6785;57.918;12.530;2023-05-02T15:22:42;10.00;99.90
13426;DHT22;6785;57.918;12.530;2023-05-02T15:25:09;10.10;99.90
13426;DHT22;6785;57.918;12.530;2023-05-02T15:27:37;9.90;99.90
13426;DHT22;6785;57.918;12.530;2023-05-02T15:30:05;9.90;99.90
13426;DHT22;6785;57.918;12.530;2023-05-02T15:32:32;9.90;99.90
13426;DHT22;6785;57.918;12.530;2023-05-02T15:34:59;9.90;99.90
13426;DHT22;6785;57.918;12.530;2023-05-02T15:37:26;10.00;99.90
13426;DHT22;6785;57.918;12.530;2023-05-02T15:39:53;10.00;99.90
13426;DHT22;6785;57.918;12.530;2023-05-02T15:42:20;9.80;99.90
13426;DHT22;6785;57.918;12.530;2023-05-02T15:44:48;9.90;99.90
13426;DHT22;6785;57.918;12.530;2023-05-02T15:47:14;10.10;99.90
13426;DHT22;6785;57.918;12.530;2023-05-02T15:49:41;10.10;99.90
13426;DHT22;6785;57.918;12.530;2023-05-02T15:52:08;10.00;99.90